Time;durP1;ratioP1;P1;durP2;ratioP2;P2;SDS_P1;SDS_P2;PMS_P1;PMS_P2;Temp;Humidity;BMP_temperature;BMP_pressure;BME280_temperature;BME280_humidity;BME280_pressure;Samples;Min_cycle;Max_cycle;Signal;HPM_P1;HPM_P2
2022/07/23 00:01:41;;;;;;;0.00;0.00;;;22.40;99.90;226.50;231333.00;;;;5093228;28;20216;-74
2022/07/23 00:04:09;;;;;;;0.00;0.00;;;22.30;99.90;226.50;231333.00;;;;5093445;28;20197;-74
2022/07/23 00:06:37;;;;;;;0.00;0.00;;;22.20;99.90;226.50;231333.00;;;;5092887;28;20204;-74
2022/07/23 00:09:05;;;;;;;0.00;0.00;;;22.30;99.90;226.50;231333.00;;;;5100218;28;20220;-73
2022/07/23 00:11:33;;;;;;;0.00;0.00;;;22.30;99.90;226.50;231333.00;;;;5090939;28;20228;-73
2022/07/23 00:14:02;;;;;;;0.00;0.00;;;22.30;99.90;226.50;231333.00;;;;5092836;28;20560;-73
2022/07/23 00:16:30;;;;;;;0.00;0.00;;;22.30;99.90;226.50;231333.00;;;;5092706;28;20219;-73
2022/07/23 00:19:01;;;;;;;0.00;0.00;;;22.30;99.90;226.50;231333.00;;;;5074022;28;20193;-72
2022/07/23 00:21:29;;;;;;;0.00;0.00;;;22.20;99.90;226.50;231333.00;;;;5073079;28;20208;-73
2022/07/23 00:23:57;;;;;;;0.00;0.00;;;22.20;99.90;226.50;231333.00;;;;5091463;28;20201;-73
2022/07/23 00:26:26;;;;;;;0.00;0.00;;;22.10;99.90;226.50;231333.00;;;;5091435;28;20189;-74
2022/07/23 00:28:54;;;;;;;0.00;0.00;;;22.10;99.90;226.50;231333.00;;;;5092200;28;20189;-72
2022/07/23 00:31:23;;;;;;;0.00;0.00;;;22.10;99.90;226.50;231333.00;;;;5092117;28;20217;-72
2022/07/23 00:33:52;;;;;;;0.00;0.00;;;22.10;99.90;226.50;231333.00;;;;5089900;28;20672;-74
2022/07/23 00:36:20;;;;;;;0.00;0.00;;;22.00;99.90;226.50;231333.00;;;;5091325;28;20185;-73
2022/07/23 00:38:48;;;;;;;0.00;0.00;;;22.10;99.90;226.50;231333.00;;;;5092021;28;20565;-73
2022/07/23 00:41:16;;;;;;;0.00;0.00;;;22.00;99.90;226.50;231333.00;;;;5092145;28;20279;-72
2022/07/23 00:43:45;;;;;;;0.00;0.00;;;22.00;99.90;226.50;231333.00;;;;5074342;28;20193;-75
2022/07/23 00:46:12;;;;;;;0.00;0.00;;;22.00;99.90;226.50;231333.00;;;;5085267;28;20208;-73
2022/07/23 00:48:42;;;;;;;0.00;0.00;;;22.00;99.90;226.50;231333.00;;;;5086592;28;20197;-73
2022/07/23 00:51:10;;;;;;;0.00;0.00;;;21.80;99.90;226.50;231333.00;;;;5084158;28;20626;-74
2022/07/23 00:53:38;;;;;;;0.00;0.00;;;21.80;99.90;226.50;231333.00;;;;5090065;28;20551;-73
2022/07/23 00:56:07;;;;;;;0.00;0.00;;;21.80;99.90;226.50;231333.00;;;;5086579;28;20209;-73
2022/07/23 00:58:37;;;;;;;0.00;0.00;;;21.80;99.90;226.50;231333.00;;;;5053471;28;20206;-73
2022/07/23 01:01:05;;;;;;;0.00;0.00;;;21.80;99.90;226.50;231333.00;;;;5086418;28;20221;-73
2022/07/23 01:03:33;;;;;;;0.00;0.00;;;21.80;99.90;226.50;231333.00;;;;5071883;28;20233;-71
2022/07/23 01:06:03;;;;;;;0.00;0.00;;;21.80;99.90;226.50;231333.00;;;;5059257;28;20192;-74
2022/07/23 01:08:31;;;;;;;0.00;0.00;;;21.80;99.90;226.50;231333.00;;;;5072372;28;20212;-74
2022/07/23 01:10:59;;;;;;;0.00;0.00;;;21.70;99.90;226.50;231333.00;;;;5090606;28;20224;-73
2022/07/23 01:13:27;;;;;;;0.00;0.00;;;21.70;99.90;226.50;231333.00;;;;5069959;28;20197;-73
2022/07/23 01:15:55;;;;;;;0.00;0.00;;;21.60;99.90;226.50;231333.00;;;;5073374;28;20189;-73
2022/07/23 01:18:23;;;;;;;0.00;0.00;;;21.60;99.90;226.50;231333.00;;;;5091760;28;20193;-73
2022/07/23 01:20:51;;;;;;;0.00;0.00;;;21.60;99.90;226.50;231333.00;;;;5072340;28;20273;-72
2022/07/23 01:23:21;;;;;;;0.00;0.00;;;21.60;99.90;226.50;231333.00;;;;5084910;28;20292;-73
2022/07/23 01:25:55;;;;;;;0.00;0.00;;;21.50;99.90;226.50;231333.00;;;;5063782;28;20205;-72
2022/07/23 01:28:25;;;;;;;0.00;0.00;;;21.60;99.90;226.50;231333.00;;;;5071943;28;20291;-73
2022/07/23 01:30:55;;;;;;;0.00;0.00;;;21.50;99.90;226.50;231333.00;;;;5073464;28;20220;-72
2022/07/23 01:33:23;;;;;;;0.00;0.00;;;21.50;99.90;226.50;231333.00;;;;5073490;28;20585;-72
2022/07/23 01:35:51;;;;;;;0.00;0.00;;;21.50;99.90;226.50;231333.00;;;;5071247;28;20201;-72
2022/07/23 01:38:24;;;;;;;0.00;0.00;;;21.50;99.90;226.50;231333.00;;;;5073219;28;20284;-72
2022/07/23 01:40:52;;;;;;;0.00;0.00;;;21.50;99.90;226.50;231333.00;;;;5072800;28;20561;-73
2022/07/23 01:43:25;;;;;;;0.00;0.00;;;21.50;99.90;226.50;231333.00;;;;5073524;28;20192;-72
2022/07/23 01:45:54;;;;;;;0.00;0.00;;;21.50;99.90;226.50;231333.00;;;;5072593;28;20201;-73
2022/07/23 01:48:25;;;;;;;0.00;0.00;;;21.50;99.90;226.50;231333.00;;;;5090006;28;20691;-72
2022/07/23 01:51:11;;;;;;;0.00;0.00;;;21.40;99.90;226.50;231333.00;;;;5086092;28;20637;-73
2022/07/23 01:53:46;;;;;;;0.00;0.00;;;21.30;99.90;226.50;231333.00;;;;5069270;28;20667;-73
2022/07/23 01:56:14;;;;;;;0.00;0.00;;;21.30;99.90;226.50;231333.00;;;;5069682;28;20308;-73
2022/07/23 01:58:43;;;;;;;0.00;0.00;;;21.30;99.90;226.50;231333.00;;;;5069990;28;20200;-73
2022/07/23 02:01:11;;;;;;;0.00;0.00;;;21.30;99.90;226.50;231333.00;;;;5085824;28;20228;-73
2022/07/23 02:03:39;;;;;;;0.00;0.00;;;21.30;99.90;226.50;231333.00;;;;5073287;28;20246;-73
2022/07/23 02:06:07;;;;;;;0.10;0.10;;;21.30;99.90;226.50;231333.00;;;;5090791;28;20725;-72
2022/07/23 02:08:35;;;;;;;0.00;0.00;;;21.30;99.90;226.50;231333.00;;;;5079090;28;20208;-73
2022/07/23 02:11:05;;;;;;;0.00;0.00;;;21.30;99.90;226.50;231333.00;;;;5086303;28;20295;-73
2022/07/23 02:13:33;;;;;;;0.00;0.00;;;21.30;99.90;226.50;231333.00;;;;5079151;28;20190;-73
2022/07/23 02:16:01;;;;;;;0.00;0.00;;;21.30;99.90;226.50;231333.00;;;;5055600;28;20185;-73
2022/07/23 02:18:30;;;;;;;0.00;0.00;;;21.20;99.90;226.50;231333.00;;;;5072789;28;20228;-73
2022/07/23 02:20:58;;;;;;;0.00;0.00;;;21.20;99.90;226.50;231333.00;;;;5070716;28;20233;-73
2022/07/23 02:23:28;;;;;;;0.00;0.00;;;21.10;99.90;226.50;231333.00;;;;5086398;28;20200;-74
2022/07/23 02:25:56;;;;;;;0.00;0.00;;;21.10;99.90;226.50;231333.00;;;;5065784;28;20205;-73
2022/07/23 02:28:25;;;;;;;0.00;0.00;;;21.10;99.90;226.50;231333.00;;;;5066111;28;20200;-73
2022/07/23 02:30:53;;;;;;;0.00;0.00;;;21.20;99.90;226.50;231333.00;;;;5071529;28;20225;-74
2022/07/23 02:33:21;;;;;;;0.00;0.00;;;21.20;99.90;226.50;231333.00;;;;5082899;28;20217;-73
2022/07/23 02:35:50;;;;;;;0.00;0.00;;;21.30;99.90;226.50;231333.00;;;;5074707;28;20201;-73
2022/07/23 02:38:19;;;;;;;0.00;0.00;;;21.20;99.90;226.50;231333.00;;;;5076359;28;20254;-74
2022/07/23 02:40:48;;;;;;;0.00;0.00;;;21.20;99.90;226.50;231333.00;;;;5073097;28;20624;-73
2022/07/23 02:43:17;;;;;;;0.00;0.00;;;21.20;99.90;226.50;231333.00;;;;5073514;28;20201;-73
2022/07/23 02:45:47;;;;;;;0.00;0.00;;;21.20;99.90;226.50;231333.00;;;;5057845;28;20224;-74
2022/07/23 02:48:15;;;;;;;0.00;0.00;;;21.10;99.90;226.50;231333.00;;;;5076373;28;20201;-73
2022/07/23 02:50:45;;;;;;;0.00;0.00;;;21.10;99.90;226.50;231333.00;;;;5074956;28;20263;-73
2022/07/23 02:53:16;;;;;;;0.00;0.00;;;21.10;99.90;226.50;231333.00;;;;5075984;28;20225;-73
2022/07/23 02:55:44;;;;;;;0.00;0.00;;;21.00;99.90;226.50;231333.00;;;;5076030;28;20639;-74
2022/07/23 02:58:12;;;;;;;0.00;0.00;;;20.90;99.90;226.50;231333.00;;;;5075240;28;20584;-73
2022/07/23 03:00:40;;;;;;;0.00;0.00;;;20.90;99.90;226.50;231333.00;;;;5090033;28;20273;-74
2022/07/23 03:03:10;;;;;;;0.00;0.00;;;20.90;99.90;226.50;231333.00;;;;5088167;28;20233;-73
2022/07/23 03:05:38;;;;;;;0.00;0.00;;;20.90;99.90;226.50;231333.00;;;;5073895;28;20200;-73
2022/07/23 03:08:06;;;;;;;0.00;0.00;;;21.00;99.90;226.50;231333.00;;;;5079515;28;20631;-73
2022/07/23 03:10:37;;;;;;;0.00;0.00;;;21.00;99.90;226.50;231333.00;;;;5071174;28;20259;-74
2022/07/23 03:13:05;;;;;;;0.00;0.00;;;20.90;99.90;226.50;231333.00;;;;5102832;28;20213;-74
2022/07/23 03:15:34;;;;;;;0.00;0.00;;;20.90;99.90;226.50;231333.00;;;;5085229;28;20200;-74
2022/07/23 03:18:02;;;;;;;0.00;0.00;;;20.90;99.90;226.50;231333.00;;;;5082491;28;20205;-73
2022/07/23 03:20:31;;;;;;;0.00;0.00;;;20.90;99.90;226.50;231333.00;;;;5081266;28;20256;-73
2022/07/23 03:23:00;;;;;;;0.00;0.00;;;20.90;99.90;226.50;231333.00;;;;5097924;28;20205;-72
2022/07/23 03:25:29;;;;;;;0.00;0.00;;;20.80;99.90;226.50;231333.00;;;;5074682;28;20683;-72
2022/07/23 03:27:58;;;;;;;0.00;0.00;;;20.70;99.90;226.50;231333.00;;;;5081025;28;20197;-72
2022/07/23 03:30:29;;;;;;;0.00;0.00;;;20.60;99.90;226.50;231333.00;;;;5076901;28;20243;-73
2022/07/23 03:32:57;;;;;;;0.00;0.00;;;20.50;99.90;226.50;231333.00;;;;5075055;28;20772;-73
2022/07/23 03:35:25;;;;;;;0.00;0.00;;;20.50;99.90;226.50;231333.00;;;;5090843;28;20208;-73
2022/07/23 03:38:18;;;;;;;0.00;0.00;;;20.50;99.90;226.50;231333.00;;;;5092532;28;20203;-77
2022/07/23 03:40:46;;;;;;;0.00;0.00;;;20.50;99.90;226.50;231333.00;;;;5094135;28;20220;-77
2022/07/23 03:43:14;;;;;;;0.00;0.00;;;20.40;99.90;226.50;231333.00;;;;5075270;28;20206;-77
2022/07/23 03:45:43;;;;;;;0.00;0.00;;;20.40;99.90;226.50;231333.00;;;;5075665;28;20203;-78
2022/07/23 03:48:11;;;;;;;0.00;0.00;;;20.40;99.90;226.50;231333.00;;;;5075136;28;20205;-77
2022/07/23 03:50:40;;;;;;;0.00;0.00;;;20.30;99.90;226.50;231333.00;;;;5073745;28;20676;-77
2022/07/23 03:53:08;;;;;;;0.00;0.00;;;20.20;99.90;226.50;231333.00;;;;5074789;28;20232;-77
2022/07/23 03:55:37;;;;;;;0.00;0.00;;;20.20;99.90;226.50;231333.00;;;;5075559;28;20540;-77
2022/07/23 03:58:05;;;;;;;0.00;0.00;;;20.20;99.90;226.50;231333.00;;;;5092450;28;20212;-77
2022/07/23 04:00:33;;;;;;;0.00;0.00;;;20.30;99.90;226.50;231333.00;;;;5068863;28;20796;-76
2022/07/23 04:03:03;;;;;;;0.00;0.00;;;20.30;99.90;226.50;231333.00;;;;5088391;28;20619;-77
2022/07/23 04:05:33;;;;;;;0.00;0.00;;;20.30;99.90;226.50;231333.00;;;;5055010;28;20193;-76
2022/07/23 04:08:06;;;;;;;0.00;0.00;;;20.30;99.90;226.50;231333.00;;;;5073558;28;20211;-76
2022/07/23 04:10:39;;;;;;;0.00;0.00;;;20.30;99.90;226.50;231333.00;;;;5061600;28;20694;-76
2022/07/23 04:13:09;;;;;;;0.00;0.00;;;20.30;99.90;226.50;231333.00;;;;5074508;28;20220;-76
2022/07/23 04:15:37;;;;;;;0.00;0.00;;;20.30;99.90;226.50;231333.00;;;;5074841;28;20215;-76
2022/07/23 04:18:06;;;;;;;0.00;0.00;;;20.40;99.90;226.50;231333.00;;;;5074076;28;20205;-76
2022/07/23 04:20:49;;;;;;;0.00;0.00;;;20.40;99.90;226.50;231333.00;;;;5072982;28;20603;-76
2022/07/23 04:23:17;;;;;;;0.00;0.00;;;20.40;99.90;226.50;231333.00;;;;5073432;28;20205;-76
2022/07/23 04:25:49;;;;;;;0.00;0.00;;;20.40;99.90;226.50;231333.00;;;;5074883;28;20207;-77
2022/07/23 04:28:17;;;;;;;0.00;0.00;;;20.40;99.90;226.50;231333.00;;;;5074209;28;20197;-76
2022/07/23 04:30:45;;;;;;;0.00;0.00;;;20.40;99.90;226.50;231333.00;;;;5071247;28;20218;-76
2022/07/23 04:33:16;;;;;;;0.00;0.00;;;20.30;99.90;226.50;231333.00;;;;5087694;28;20603;-77
2022/07/23 04:35:44;;;;;;;0.00;0.00;;;20.20;99.90;226.50;231333.00;;;;5069070;28;20288;-77
2022/07/23 04:38:18;;;;;;;0.00;0.00;;;20.20;99.90;226.50;231333.00;;;;5073757;28;20304;-77
2022/07/23 04:40:50;;;;;;;0.00;0.00;;;20.10;99.90;226.50;231333.00;;;;5090798;28;20327;-77
2022/07/23 04:43:19;;;;;;;0.00;0.00;;;20.10;99.90;226.50;231333.00;;;;5091034;28;20240;-76
2022/07/23 04:45:50;;;;;;;0.00;0.00;;;20.20;99.90;226.50;231333.00;;;;5074034;28;20197;-76
2022/07/23 04:48:18;;;;;;;0.00;0.00;;;19.90;99.90;226.50;231333.00;;;;5087850;28;20234;-76
2022/07/23 04:50:54;;;;;;;0.00;0.00;;;19.90;99.90;226.50;231333.00;;;;5064151;28;20707;-77
2022/07/23 04:53:23;;;;;;;0.00;0.00;;;19.90;99.90;226.50;231333.00;;;;5090453;28;20217;-77
2022/07/23 04:55:56;;;;;;;0.00;0.00;;;19.90;99.90;226.50;231333.00;;;;5090365;28;20197;-76
2022/07/23 04:58:24;;;;;;;0.00;0.00;;;19.90;99.90;226.50;231333.00;;;;5086959;28;20194;-76
2022/07/23 05:00:52;;;;;;;0.00;0.00;;;19.90;99.90;226.50;231333.00;;;;5084231;28;20209;-77
2022/07/23 05:03:20;;;;;;;0.00;0.00;;;19.80;99.90;226.50;231333.00;;;;5108005;28;20676;-77
2022/07/23 05:05:48;;;;;;;0.00;0.00;;;19.80;99.90;226.50;231333.00;;;;5091256;28;20193;-77
2022/07/23 05:08:19;;;;;;;0.00;0.00;;;19.80;99.90;226.50;231333.00;;;;5073688;28;20197;-77
2022/07/23 05:10:51;;;;;;;0.00;0.00;;;19.80;99.90;226.50;231333.00;;;;5086732;28;20210;-77
2022/07/23 05:13:22;;;;;;;0.00;0.00;;;19.90;99.90;226.50;231333.00;;;;5053726;28;20253;-78
2022/07/23 05:15:54;;;;;;;0.00;0.00;;;20.00;99.90;226.50;231333.00;;;;5057137;28;20715;-76
2022/07/23 05:18:22;;;;;;;0.00;0.00;;;20.00;99.90;226.50;231333.00;;;;5090837;28;20200;-78
2022/07/23 05:20:51;;;;;;;0.10;0.10;;;20.00;99.90;226.50;231333.00;;;;5072688;28;20720;-79
2022/07/23 05:23:21;;;;;;;0.00;0.00;;;20.00;99.90;226.50;231333.00;;;;5071782;28;20210;-77
2022/07/23 05:25:50;;;;;;;0.00;0.00;;;20.10;99.90;226.50;231333.00;;;;5073941;28;20725;-76
2022/07/23 05:28:21;;;;;;;0.00;0.00;;;20.10;99.90;226.50;231333.00;;;;5073339;28;20189;-76
2022/07/23 05:30:51;;;;;;;0.00;0.00;;;20.10;99.90;226.50;231333.00;;;;5066475;28;20582;-76
2022/07/23 05:33:20;;;;;;;0.00;0.00;;;20.00;99.90;226.50;231333.00;;;;5073439;28;20315;-75
2022/07/23 05:35:48;;;;;;;0.00;0.00;;;19.90;99.90;226.50;231333.00;;;;5071819;28;20229;-75
2022/07/23 05:38:27;;;;;;;0.00;0.00;;;19.90;99.90;226.50;231333.00;;;;5089851;28;20573;-76
2022/07/23 05:40:58;;;;;;;0.00;0.00;;;19.90;99.90;226.50;231333.00;;;;5072833;28;20300;-76
2022/07/23 05:43:28;;;;;;;0.10;0.10;;;19.80;99.90;226.50;231333.00;;;;5091542;28;20185;-76
2022/07/23 05:45:58;;;;;;;0.00;0.00;;;19.80;99.90;226.50;231333.00;;;;5073139;28;20236;-76
2022/07/23 05:48:26;;;;;;;0.00;0.00;;;19.80;99.90;226.50;231333.00;;;;5073458;28;20193;-76
2022/07/23 05:51:09;;;;;;;0.00;0.00;;;19.80;99.90;226.50;231333.00;;;;5070022;28;20215;-75
2022/07/23 05:53:38;;;;;;;0.03;0.03;;;19.80;99.90;226.50;231333.00;;;;5064854;28;20213;-75
2022/07/23 05:56:10;;;;;;;0.08;0.08;;;19.90;99.90;226.50;231333.00;;;;5066892;28;20204;-75
2022/07/23 05:58:40;;;;;;;0.00;0.00;;;19.90;99.90;226.50;231333.00;;;;5073293;28;20303;-75
2022/07/23 06:01:09;;;;;;;0.00;0.00;;;19.90;99.90;226.50;231333.00;;;;5073266;28;20212;-76
2022/07/23 06:03:44;;;;;;;0.00;0.00;;;20.00;99.90;226.50;231333.00;;;;5073375;28;20208;-76
2022/07/23 06:06:12;;;;;;;0.00;0.00;;;20.00;99.90;226.50;231333.00;;;;5068743;28;20289;-76
2022/07/23 06:08:41;;;;;;;0.00;0.00;;;20.10;99.90;226.50;231333.00;;;;5069144;28;20196;-75
2022/07/23 06:11:09;;;;;;;0.00;0.00;;;20.10;99.90;226.50;231333.00;;;;5076343;28;20213;-76
2022/07/23 06:13:38;;;;;;;0.00;0.00;;;20.10;99.90;226.50;231333.00;;;;5077331;28;20217;-77
2022/07/23 06:16:07;;;;;;;0.00;0.00;;;20.10;99.90;226.50;231333.00;;;;5076831;28;20684;-76
2022/07/23 06:18:35;;;;;;;0.00;0.00;;;20.10;99.90;226.50;231333.00;;;;5076763;28;20205;-78
2022/07/23 06:21:04;;;;;;;0.00;0.00;;;20.10;99.90;226.50;231333.00;;;;5075520;28;20343;-77
2022/07/23 06:23:52;;;;;;;0.00;0.00;;;20.10;99.90;226.50;231333.00;;;;5075785;28;20244;-76
2022/07/23 06:26:20;;;;;;;0.00;0.00;;;20.20;99.90;226.50;231333.00;;;;5076562;28;20201;-75
2022/07/23 06:28:48;;;;;;;0.00;0.00;;;20.20;99.90;226.50;231333.00;;;;5075835;28;20724;-75
2022/07/23 06:31:18;;;;;;;0.00;0.00;;;20.20;99.90;226.50;231333.00;;;;5094243;28;20197;-76
2022/07/23 06:33:46;;;;;;;0.00;0.00;;;20.10;99.90;226.50;231333.00;;;;5093234;28;20266;-76
2022/07/23 06:36:14;;;;;;;0.00;0.00;;;20.20;99.90;226.50;231333.00;;;;5089869;28;20196;-73
2022/07/23 06:38:42;;;;;;;0.00;0.00;;;20.20;99.90;226.50;231333.00;;;;5094165;28;20211;-74
2022/07/23 06:41:11;;;;;;;0.00;0.00;;;20.20;99.90;226.50;231333.00;;;;5094696;28;20220;-74
2022/07/23 06:43:40;;;;;;;0.00;0.00;;;20.30;99.90;226.50;231333.00;;;;5095144;28;20276;-74
2022/07/23 06:46:09;;;;;;;0.00;0.00;;;20.30;99.90;226.50;231333.00;;;;5076191;28;20247;-76
2022/07/23 06:48:39;;;;;;;0.00;0.00;;;20.30;99.90;226.50;231333.00;;;;5075699;28;20542;-72
2022/07/23 06:51:07;;;;;;;0.00;0.00;;;20.40;99.90;226.50;231333.00;;;;5075706;28;20606;-74
2022/07/23 06:53:35;;;;;;;0.00;0.00;;;20.40;99.90;226.50;231333.00;;;;5087215;28;20208;-74
2022/07/23 06:56:04;;;;;;;0.00;0.00;;;20.40;99.90;226.50;231333.00;;;;5075630;28;20201;-75
2022/07/23 06:58:33;;;;;;;0.00;0.00;;;20.40;99.90;226.50;231333.00;;;;5075504;28;20250;-75
2022/07/23 07:01:01;;;;;;;0.00;0.00;;;20.40;99.90;226.50;231333.00;;;;5075792;28;20731;-75
2022/07/23 07:03:29;;;;;;;0.00;0.00;;;20.50;99.90;226.50;231333.00;;;;5087257;28;20276;-75
2022/07/23 07:05:59;;;;;;;0.00;0.00;;;20.50;99.90;226.50;231333.00;;;;5083712;28;20198;-75
2022/07/23 07:08:27;;;;;;;0.00;0.00;;;20.40;99.90;226.50;231333.00;;;;5089671;28;20204;-74
2022/07/23 07:10:55;;;;;;;0.00;0.00;;;20.40;99.90;226.50;231333.00;;;;5090558;28;20209;-75
2022/07/23 07:13:23;;;;;;;0.00;0.00;;;20.40;99.90;226.50;231333.00;;;;5092787;28;20197;-73
2022/07/23 07:15:51;;;;;;;0.00;0.00;;;20.40;99.90;226.50;231333.00;;;;5093767;28;20236;-74
2022/07/23 07:18:19;;;;;;;0.00;0.00;;;20.40;99.90;226.50;231333.00;;;;5093115;28;20216;-74
2022/07/23 07:20:47;;;;;;;0.00;0.00;;;20.40;99.90;226.50;231333.00;;;;5091258;28;20221;-74
2022/07/23 07:23:16;;;;;;;0.00;0.00;;;20.40;99.90;226.50;231333.00;;;;5096073;28;20205;-75
2022/07/23 07:25:44;;;;;;;0.00;0.00;;;20.30;99.90;226.50;231333.00;;;;5100990;28;20205;-74
2022/07/23 07:28:13;;;;;;;0.00;0.00;;;20.20;99.90;226.50;231333.00;;;;5099512;28;20229;-74
2022/07/23 07:30:41;;;;;;;0.00;0.00;;;20.20;99.90;226.50;231333.00;;;;5091262;28;20217;-73
2022/07/23 07:33:09;;;;;;;0.00;0.00;;;20.20;99.90;226.50;231333.00;;;;5100109;28;20192;-73
2022/07/23 07:35:37;;;;;;;0.00;0.00;;;20.30;99.90;226.50;231333.00;;;;5097946;28;20696;-74
2022/07/23 07:38:05;;;;;;;0.00;0.00;;;20.30;99.90;226.50;231333.00;;;;5097708;28;20201;-76
2022/07/23 07:40:34;;;;;;;0.00;0.00;;;20.30;99.90;226.50;231333.00;;;;5098766;28;20224;-76
2022/07/23 07:43:03;;;;;;;0.00;0.00;;;20.40;99.90;226.50;231333.00;;;;5094126;28;20193;-75
2022/07/23 07:45:31;;;;;;;0.00;0.00;;;20.40;99.90;226.50;231333.00;;;;5094469;28;20193;-77
2022/07/23 07:47:59;;;;;;;0.00;0.00;;;20.50;99.90;226.50;231333.00;;;;5090740;28;20656;-75
2022/07/23 07:50:28;;;;;;;0.00;0.00;;;20.50;99.90;226.50;231333.00;;;;5093629;28;20280;-73
2022/07/23 07:52:56;;;;;;;0.00;0.00;;;20.50;99.90;226.50;231333.00;;;;5093056;28;20196;-73
2022/07/23 07:55:24;;;;;;;0.00;0.00;;;20.60;99.90;226.50;231333.00;;;;5093556;28;20213;-73
2022/07/23 07:57:54;;;;;;;0.00;0.00;;;20.80;99.90;226.50;231333.00;;;;5093213;28;20593;-73
2022/07/23 08:00:22;;;;;;;0.00;0.00;;;21.00;99.90;226.50;231333.00;;;;5092902;28;20205;-74
2022/07/23 08:02:52;;;;;;;0.00;0.00;;;21.20;99.90;226.50;231333.00;;;;5092427;28;20196;-74
2022/07/23 08:05:22;;;;;;;0.00;0.00;;;21.30;99.90;226.50;231333.00;;;;5093393;28;20170;-74
2022/07/23 08:07:54;;;;;;;0.00;0.00;;;21.40;99.90;226.50;231333.00;;;;5092559;28;20197;-74
2022/07/23 08:10:23;;;;;;;0.00;0.00;;;21.50;99.90;226.50;231333.00;;;;5091539;28;20218;-75
2022/07/23 08:12:57;;;;;;;0.00;0.00;;;21.50;99.90;226.50;231333.00;;;;5093089;28;20200;-75
2022/07/23 08:15:27;;;;;;;0.00;0.00;;;21.40;99.90;226.50;231333.00;;;;5092935;28;20220;-74
2022/07/23 08:17:56;;;;;;;0.00;0.00;;;21.60;99.90;226.50;231333.00;;;;5092187;28;20197;-75
2022/07/23 08:20:25;;;;;;;0.00;0.00;;;21.70;99.90;226.50;231333.00;;;;5080476;28;20205;-74
2022/07/23 08:22:59;;;;;;;0.00;0.00;;;21.70;99.90;226.50;231333.00;;;;5088740;28;20193;-76
2022/07/23 08:25:31;;;;;;;0.00;0.00;;;21.60;99.90;226.50;231333.00;;;;5090774;28;20196;-74
2022/07/23 08:28:05;;;;;;;0.00;0.00;;;21.50;99.90;226.50;231333.00;;;;5086645;28;20193;-74
2022/07/23 08:30:36;;;;;;;0.00;0.00;;;21.60;99.90;226.50;231333.00;;;;5091229;28;20222;-75
2022/07/23 08:33:07;;;;;;;0.00;0.00;;;21.60;99.90;226.50;231333.00;;;;5091846;28;20256;-76
2022/07/23 08:35:38;;;;;;;0.00;0.00;;;21.80;99.90;226.50;231333.00;;;;5091347;28;20300;-74
2022/07/23 08:38:09;;;;;;;0.00;0.00;;;21.90;99.90;226.50;231333.00;;;;5092381;28;20204;-73
2022/07/23 08:40:41;;;;;;;0.00;0.00;;;22.20;99.90;226.50;231333.00;;;;5092415;28;20209;-73
2022/07/23 08:43:15;;;;;;;0.00;0.00;;;22.40;99.90;226.50;231333.00;;;;5094191;28;20235;-75
2022/07/23 08:45:46;;;;;;;0.00;0.00;;;22.20;99.90;226.50;231333.00;;;;5092731;28;20193;-73
2022/07/23 08:48:17;;;;;;;0.00;0.00;;;22.40;99.90;226.50;231333.00;;;;5091749;28;20197;-73
2022/07/23 08:50:48;;;;;;;0.00;0.00;;;22.50;99.90;226.50;231333.00;;;;5090153;28;20216;-73
2022/07/23 08:53:19;;;;;;;0.00;0.00;;;22.60;99.90;226.50;231333.00;;;;5090579;28;20682;-73
2022/07/23 08:55:50;;;;;;;0.00;0.00;;;22.80;99.90;226.50;231333.00;;;;5091697;28;20569;-73
2022/07/23 08:58:21;;;;;;;0.00;0.00;;;22.80;99.90;226.50;231333.00;;;;5092946;28;20267;-73
2022/07/23 09:00:57;;;;;;;0.00;0.00;;;22.60;99.90;226.50;231333.00;;;;5091128;28;20216;-73
2022/07/23 09:03:27;;;;;;;0.00;0.00;;;22.70;99.90;226.50;231333.00;;;;5090996;28;20216;-73
2022/07/23 09:05:57;;;;;;;0.00;0.00;;;22.50;99.90;226.50;231333.00;;;;5091735;28;20201;-74
2022/07/23 09:08:34;;;;;;;0.00;0.00;;;22.70;99.90;226.50;231333.00;;;;5091182;28;20271;-73
2022/07/23 09:11:05;;;;;;;0.00;0.00;;;22.80;99.90;226.50;231333.00;;;;5089552;28;20606;-73
2022/07/23 09:13:40;;;;;;;0.00;0.00;;;23.00;99.90;226.50;231333.00;;;;5082059;28;20189;-73
2022/07/23 09:16:12;;;;;;;0.00;0.00;;;23.10;99.90;226.50;231333.00;;;;5091320;28;20216;-73
2022/07/23 09:18:45;;;;;;;0.00;0.00;;;22.70;99.90;226.50;231333.00;;;;5090519;28;20199;-73
2022/07/23 09:21:24;;;;;;;0.00;0.00;;;22.50;99.90;226.50;231333.00;;;;5087777;28;20205;-73
2022/07/23 09:23:56;;;;;;;0.00;0.00;;;22.50;99.90;226.50;231333.00;;;;5092449;28;20192;-73
2022/07/23 09:26:32;;;;;;;0.00;0.00;;;22.40;99.90;226.50;231333.00;;;;5073145;28;20193;-73
2022/07/23 09:29:10;;;;;;;0.00;0.00;;;22.50;99.90;226.50;231333.00;;;;5093419;28;20208;-74
2022/07/23 09:31:46;;;;;;;0.00;0.00;;;22.60;99.90;226.50;231333.00;;;;5072833;28;20185;-73
2022/07/23 09:34:20;;;;;;;0.00;0.00;;;22.50;99.90;226.50;231333.00;;;;5085169;28;20582;-73
2022/07/23 09:36:53;;;;;;;0.00;0.00;;;22.40;99.90;226.50;231333.00;;;;5087160;28;20235;-73
2022/07/23 09:39:28;;;;;;;0.00;0.00;;;22.10;99.90;226.50;231333.00;;;;5092459;28;20216;-73
2022/07/23 09:41:57;;;;;;;0.00;0.00;;;22.20;99.90;226.50;231333.00;;;;5094555;28;20198;-73
2022/07/23 09:44:26;;;;;;;0.00;0.00;;;22.40;99.90;226.50;231333.00;;;;5095988;28;20189;-73
2022/07/23 09:47:01;;;;;;;0.00;0.00;;;22.50;99.90;226.50;231333.00;;;;5095583;28;20196;-73
2022/07/23 09:49:29;;;;;;;0.00;0.00;;;22.60;99.90;226.50;231333.00;;;;5094667;28;20727;-73
2022/07/23 09:52:01;;;;;;;0.00;0.00;;;22.60;99.90;226.50;231333.00;;;;5094940;28;20279;-74
2022/07/23 09:54:34;;;;;;;0.00;0.00;;;22.60;99.90;226.50;231333.00;;;;5095878;28;20242;-74
2022/07/23 09:57:07;;;;;;;0.00;0.00;;;22.50;99.90;226.50;231333.00;;;;5095180;28;20220;-73
2022/07/23 09:59:39;;;;;;;0.00;0.00;;;22.40;99.90;226.50;231333.00;;;;5095820;28;20304;-75
2022/07/23 10:02:10;;;;;;;0.00;0.00;;;22.60;99.90;226.50;231333.00;;;;5095639;28;20193;-75
2022/07/23 10:04:55;;;;;;;0.00;0.00;;;22.80;99.90;226.50;231333.00;;;;5095045;28;20193;-74
2022/07/23 10:07:44;;;;;;;0.00;0.00;;;23.00;99.90;226.50;231333.00;;;;5093983;28;20197;-74
2022/07/23 10:10:40;;;;;;;0.00;0.00;;;23.10;99.90;226.50;231333.00;;;;5102329;28;20297;-74
2022/07/23 10:16:16;;;;;;;0.00;0.00;;;22.90;99.90;226.50;231333.00;;;;5082181;28;20243;-74
2022/07/23 10:18:55;;;;;;;0.00;0.00;;;23.00;99.90;226.50;231333.00;;;;5074132;28;20661;-74
2022/07/23 10:21:35;;;;;;;0.00;0.00;;;23.10;99.90;226.50;231333.00;;;;5074620;28;20197;-74
2022/07/23 10:24:21;;;;;;;0.00;0.00;;;23.30;99.90;226.50;231333.00;;;;5075035;28;20204;-74
2022/07/23 10:27:04;;;;;;;0.00;0.00;;;23.40;99.90;226.50;231333.00;;;;5093731;28;20553;-74
2022/07/23 10:29:46;;;;;;;0.00;0.00;;;23.70;99.90;226.50;231333.00;;;;5094812;28;20220;-71
2022/07/23 10:32:37;;;;;;;0.00;0.00;;;24.00;99.90;226.50;231333.00;;;;5094581;28;20193;-71
2022/07/23 10:35:23;;;;;;;0.00;0.00;;;24.30;99.90;226.50;231333.00;;;;5093214;28;20684;-73
2022/07/23 10:37:57;;;;;;;0.00;0.00;;;24.60;99.90;226.50;231333.00;;;;5093125;28;20217;-72
2022/07/23 10:40:26;;;;;;;0.00;0.00;;;24.70;99.90;226.50;231333.00;;;;5094784;28;20226;-72
2022/07/23 10:42:59;;;;;;;0.00;0.00;;;24.80;99.90;226.50;231333.00;;;;5094618;28;20193;-74
2022/07/23 10:45:31;;;;;;;0.00;0.00;;;24.70;99.90;226.50;231333.00;;;;5094457;28;20194;-74
2022/07/23 10:48:16;;;;;;;0.00;0.00;;;24.70;99.90;226.50;231333.00;;;;5094223;28;20200;-73
2022/07/23 10:51:10;;;;;;;0.00;0.00;;;24.70;99.90;226.50;231333.00;;;;5094667;28;20236;-73
2022/07/23 10:53:59;;;;;;;0.00;0.00;;;24.70;99.90;226.50;231333.00;;;;5092178;28;20507;-73
2022/07/23 10:56:51;;;;;;;0.00;0.00;;;24.80;99.90;226.50;231333.00;;;;5094569;28;20273;-74
2022/07/23 10:59:20;;;;;;;0.00;0.00;;;25.20;99.90;226.50;231333.00;;;;5088012;28;20217;-73